sensor_id;sensor_type;location;lat;lon;timestamp;pressure;altitude;pressure_sealevel;temperature;humidity
13348;BME280;6743;49.934;9.138;2024-01-30T00:00:50;101859.06;;;3.12;100.00
13348;BME280;6743;49.934;9.138;2024-01-30T00:03:21;101818.62;;;2.83;100.00
13348;BME280;6743;49.934;9.138;2024-01-30T00:05:58;101862.53;;;3.12;100.00
13348;BME280;6743;49.934;9.138;2024-01-30T00:08:24;101852.28;;;3.08;100.00
13348;BME280;6743;49.934;9.138;2024-01-30T00:10:55;101864.16;;;3.15;100.00
13348;BME280;6743;49.934;9.138;2024-01-30T00:13:25;101856.31;;;3.15;100.00
13348;BME280;6743;49.934;9.138;2024-01-30T00:15:52;101857.09;;;3.17;100.00
13348;BME280;6743;49.934;9.138;2024-01-30T00:18:27;101862.31;;;3.17;100.00
13348;BME280;6743;49.934;9.138;2024-01-30T00:20:55;101867.41;;;3.20;100.00
13348;BME280;6743;49.934;9.138;2024-01-30T00:23:25;101851.91;;;3.15;100.00
13348;BME280;6743;49.934;9.138;2024-01-30T00:25:52;101846.97;;;3.09;100.00
13348;BME280;6743;49.934;9.138;2024-01-30T00:28:20;101867.31;;;3.22;100.00
13348;BME280;6743;49.934;9.138;2024-01-30T00:30:47;101862.94;;;3.22;100.00
13348;BME280;6743;49.934;9.138;2024-01-30T00:33:17;101856.44;;;3.12;100.00
13348;BME280;6743;49.934;9.138;2024-01-30T00:35:46;101870.72;;;3.24;100.00
13348;BME280;6743;49.934;9.138;2024-01-30T00:38:15;101871.56;;;3.24;100.00
13348;BME280;6743;49.934;9.138;2024-01-30T00:40:45;101868.94;;;3.24;100.00
13348;BME280;6743;49.934;9.138;2024-01-30T00:43:16;101865.47;;;3.24;100.00
13348;BME280;6743;49.934;9.138;2024-01-30T00:46:01;101868.19;;;3.22;100.00
13348;BME280;6743;49.934;9.138;2024-01-30T00:48:30;101872.56;;;3.22;100.00
13348;BME280;6743;49.934;9.138;2024-01-30T00:51:07;101866.47;;;3.21;100.00
13348;BME280;6743;49.934;9.138;2024-01-30T00:53:36;101872.66;;;3.20;100.00
13348;BME280;6743;49.934;9.138;2024-01-30T00:56:15;101873.50;;;3.21;100.00
13348;BME280;6743;49.934;9.138;2024-01-30T00:59:01;101870.94;;;3.19;100.00
13348;BME280;6743;49.934;9.138;2024-01-30T01:01:34;101871.03;;;3.17;100.00
13348;BME280;6743;49.934;9.138;2024-01-30T01:04:00;101852.16;;;3.11;100.00
13348;BME280;6743;49.934;9.138;2024-01-30T01:06:27;101867.56;;;3.17;100.00
13348;BME280;6743;49.934;9.138;2024-01-30T01:08:53;101871.13;;;3.16;100.00
13348;BME280;6743;49.934;9.138;2024-01-30T01:11:19;101868.50;;;3.16;100.00
13348;BME280;6743;49.934;9.138;2024-01-30T01:13:45;101860.16;;;3.08;100.00
13348;BME280;6743;49.934;9.138;2024-01-30T01:16:11;101875.44;;;3.17;100.00
13348;BME280;6743;49.934;9.138;2024-01-30T01:18:37;101864.03;;;3.18;100.00
13348;BME280;6743;49.934;9.138;2024-01-30T01:21:04;101854.00;;;3.09;100.00
13348;BME280;6743;49.934;9.138;2024-01-30T01:23:30;101866.53;;;3.20;100.00
13348;BME280;6743;49.934;9.138;2024-01-30T01:25:56;101880.50;;;3.20;100.00
13348;BME280;6743;49.934;9.138;2024-01-30T01:28:22;101875.34;;;3.18;100.00
13348;BME280;6743;49.934;9.138;2024-01-30T01:30:48;101823.75;;;2.85;100.00
13348;BME280;6743;49.934;9.138;2024-01-30T01:33:14;101854.37;;;3.01;100.00
13348;BME280;6743;49.934;9.138;2024-01-30T01:35:40;101863.03;;;3.03;100.00
13348;BME280;6743;49.934;9.138;2024-01-30T01:38:07;101867.25;;;3.06;100.00
13348;BME280;6743;49.934;9.138;2024-01-30T01:40:33;101880.53;;;3.03;100.00
13348;BME280;6743;49.934;9.138;2024-01-30T01:43:02;101868.47;;;2.99;100.00
13348;BME280;6743;49.934;9.138;2024-01-30T01:45:28;101865.19;;;2.95;100.00
13348;BME280;6743;49.934;9.138;2024-01-30T01:47:54;101841.66;;;2.76;100.00
13348;BME280;6743;49.934;9.138;2024-01-30T01:50:21;101867.25;;;2.89;100.00
13348;BME280;6743;49.934;9.138;2024-01-30T01:52:48;101860.44;;;2.85;100.00
13348;BME280;6743;49.934;9.138;2024-01-30T01:55:15;101851.31;;;2.76;100.00
13348;BME280;6743;49.934;9.138;2024-01-30T01:57:43;101866.72;;;2.82;100.00
13348;BME280;6743;49.934;9.138;2024-01-30T02:00:10;101864.09;;;2.82;100.00
13348;BME280;6743;49.934;9.138;2024-01-30T02:02:36;101855.91;;;2.71;100.00
13348;BME280;6743;49.934;9.138;2024-01-30T02:05:03;101865.31;;;2.75;100.00
13348;BME280;6743;49.934;9.138;2024-01-30T02:07:29;101861.91;;;2.73;100.00
13348;BME280;6743;49.934;9.138;2024-01-30T02:09:55;101859.44;;;2.70;100.00
13348;BME280;6743;49.934;9.138;2024-01-30T02:12:22;101828.34;;;2.45;100.00
13348;BME280;6743;49.934;9.138;2024-01-30T02:14:48;101861.59;;;2.62;100.00
13348;BME280;6743;49.934;9.138;2024-01-30T02:17:15;101845.59;;;2.49;100.00
13348;BME280;6743;49.934;9.138;2024-01-30T02:19:42;101843.00;;;2.49;100.00
13348;BME280;6743;49.934;9.138;2024-01-30T02:22:09;101845.78;;;2.46;100.00
13348;BME280;6743;49.934;9.138;2024-01-30T02:24:35;101844.13;;;2.44;100.00
13348;BME280;6743;49.934;9.138;2024-01-30T02:27:01;101855.41;;;2.46;100.00
13348;BME280;6743;49.934;9.138;2024-01-30T02:29:27;101802.81;;;2.14;100.00
13348;BME280;6743;49.934;9.138;2024-01-30T02:31:53;101861.78;;;2.40;100.00
13348;BME280;6743;49.934;9.138;2024-01-30T02:34:20;101861.06;;;2.36;100.00
13348;BME280;6743;49.934;9.138;2024-01-30T02:36:46;101845.09;;;2.24;100.00
13348;BME280;6743;49.934;9.138;2024-01-30T02:39:13;101856.97;;;2.31;100.00
13348;BME280;6743;49.934;9.138;2024-01-30T02:41:39;101835.53;;;2.23;100.00
13348;BME280;6743;49.934;9.138;2024-01-30T02:44:05;101846.50;;;2.31;100.00
13348;BME280;6743;49.934;9.138;2024-01-30T02:46:31;101849.97;;;2.31;100.00
13348;BME280;6743;49.934;9.138;2024-01-30T02:48:57;101842.06;;;2.33;100.00
13348;BME280;6743;49.934;9.138;2024-01-30T02:51:23;101846.13;;;2.38;100.00
13348;BME280;6743;49.934;9.138;2024-01-30T02:53:49;101844.13;;;2.44;100.00
13348;BME280;6743;49.934;9.138;2024-01-30T02:56:16;101849.25;;;2.47;100.00
13348;BME280;6743;49.934;9.138;2024-01-30T02:58:41;101849.94;;;2.50;100.00
13348;BME280;6743;49.934;9.138;2024-01-30T03:01:08;101849.78;;;2.53;100.00
13348;BME280;6743;49.934;9.138;2024-01-30T03:03:34;101838.69;;;2.48;100.00
13348;BME280;6743;49.934;9.138;2024-01-30T03:06:01;101849.56;;;2.58;100.00
13348;BME280;6743;49.934;9.138;2024-01-30T03:08:27;101841.69;;;2.58;100.00
13348;BME280;6743;49.934;9.138;2024-01-30T03:10:53;101842.47;;;2.60;100.00
13348;BME280;6743;49.934;9.138;2024-01-30T03:13:21;101848.56;;;2.60;100.00
13348;BME280;6743;49.934;9.138;2024-01-30T03:15:48;101840.72;;;2.60;100.00
13348;BME280;6743;49.934;9.138;2024-01-30T03:18:14;101841.62;;;2.59;100.00
13348;BME280;6743;49.934;9.138;2024-01-30T03:20:40;101825.44;;;2.51;100.00
13348;BME280;6743;49.934;9.138;2024-01-30T03:23:06;101819.66;;;2.45;100.00
13348;BME280;6743;49.934;9.138;2024-01-30T03:25:32;101838.34;;;2.56;100.00
13348;BME280;6743;49.934;9.138;2024-01-30T03:27:58;101846.87;;;2.59;100.00
13348;BME280;6743;49.934;9.138;2024-01-30T03:30:25;101833.47;;;2.48;100.00
13348;BME280;6743;49.934;9.138;2024-01-30T03:32:51;101840.16;;;2.54;100.00
13348;BME280;6743;49.934;9.138;2024-01-30T03:35:18;101833.66;;;2.44;100.00
13348;BME280;6743;49.934;9.138;2024-01-30T03:37:44;101822.88;;;2.32;100.00
13348;BME280;6743;49.934;9.138;2024-01-30T03:40:11;101821.78;;;2.36;100.00
13348;BME280;6743;49.934;9.138;2024-01-30T03:42:37;101833.03;;;2.38;100.00
13348;BME280;6743;49.934;9.138;2024-01-30T03:45:04;101847.91;;;2.38;100.00
13348;BME280;6743;49.934;9.138;2024-01-30T03:47:31;101848.06;;;2.35;100.00
13348;BME280;6743;49.934;9.138;2024-01-30T03:49:57;101838.16;;;2.23;100.00
13348;BME280;6743;49.934;9.138;2024-01-30T03:52:23;101843.25;;;2.26;100.00
13348;BME280;6743;49.934;9.138;2024-01-30T03:54:49;101853.94;;;2.21;100.00
13348;BME280;6743;49.934;9.138;2024-01-30T03:57:15;101845.53;;;2.15;100.00
13348;BME280;6743;49.934;9.138;2024-01-30T03:59:41;101837.97;;;2.09;100.00
13348;BME280;6743;49.934;9.138;2024-01-30T04:02:07;101781.06;;;1.76;100.00
13348;BME280;6743;49.934;9.138;2024-01-30T04:04:34;101853.31;;;2.16;100.00
13348;BME280;6743;49.934;9.138;2024-01-30T04:07:00;101836.97;;;2.11;100.00
13348;BME280;6743;49.934;9.138;2024-01-30T04:09:26;101839.53;;;2.13;100.00
13348;BME280;6743;49.934;9.138;2024-01-30T04:11:53;101842.66;;;2.21;100.00
13348;BME280;6743;49.934;9.138;2024-01-30T04:14:20;101846.09;;;2.21;100.00
13348;BME280;6743;49.934;9.138;2024-01-30T04:16:46;101846.94;;;2.22;100.00
13348;BME280;6743;49.934;9.138;2024-01-30T04:19:12;101845.16;;;2.22;100.00
13348;BME280;6743;49.934;9.138;2024-01-30T04:21:38;101845.25;;;2.21;100.00
13348;BME280;6743;49.934;9.138;2024-01-30T04:24:05;101829.91;;;2.13;100.00
13348;BME280;6743;49.934;9.138;2024-01-30T04:26:31;101841.78;;;2.20;100.00
13348;BME280;6743;49.934;9.138;2024-01-30T04:28:57;101846.25;;;2.18;100.00
13348;BME280;6743;49.934;9.138;2024-01-30T04:31:23;101844.53;;;2.17;100.00
13348;BME280;6743;49.934;9.138;2024-01-30T04:33:49;101836.69;;;2.17;100.00
13348;BME280;6743;49.934;9.138;2024-01-30T04:36:15;101811.28;;;2.01;100.00
13348;BME280;6743;49.934;9.138;2024-01-30T04:38:41;101841.06;;;2.17;100.00
13348;BME280;6743;49.934;9.138;2024-01-30T04:41:07;101835.00;;;2.16;100.00
13348;BME280;6743;49.934;9.138;2024-01-30T04:43:33;101799.50;;;1.92;100.00
13348;BME280;6743;49.934;9.138;2024-01-30T04:45:59;101844.59;;;2.16;100.00
13348;BME280;6743;49.934;9.138;2024-01-30T04:48:25;101842.00;;;2.16;100.00
13348;BME280;6743;49.934;9.138;2024-01-30T04:50:51;101835.28;;;2.10;100.00
13348;BME280;6743;49.934;9.138;2024-01-30T04:53:17;101842.78;;;2.18;100.00
13348;BME280;6743;49.934;9.138;2024-01-30T04:55:45;101834.38;;;2.11;100.00
13348;BME280;6743;49.934;9.138;2024-01-30T04:58:11;101855.06;;;2.16;100.00
13348;BME280;6743;49.934;9.138;2024-01-30T05:00:37;101842.16;;;2.13;100.00
13348;BME280;6743;49.934;9.138;2024-01-30T05:03:03;101856.94;;;2.14;100.00
13348;BME280;6743;49.934;9.138;2024-01-30T05:05:29;101845.12;;;2.05;100.00
13348;BME280;6743;49.934;9.138;2024-01-30T05:07:55;101782.53;;;1.63;100.00
13348;BME280;6743;49.934;9.138;2024-01-30T05:10:21;101859.19;;;2.03;100.00
13348;BME280;6743;49.934;9.138;2024-01-30T05:12:48;101863.75;;;1.99;100.00
13348;BME280;6743;49.934;9.138;2024-01-30T05:15:14;101851.97;;;1.89;100.00
13348;BME280;6743;49.934;9.138;2024-01-30T05:17:40;101800.34;;;1.55;100.00
13348;BME280;6743;49.934;9.138;2024-01-30T05:20:07;101844.63;;;1.78;100.00
13348;BME280;6743;49.934;9.138;2024-01-30T05:22:34;101863.59;;;1.83;100.00
13348;BME280;6743;49.934;9.138;2024-01-30T05:25:00;101857.84;;;1.75;100.00
13348;BME280;6743;49.934;9.138;2024-01-30T05:27:26;101859.31;;;1.81;100.00
13348;BME280;6743;49.934;9.138;2024-01-30T05:29:53;101862.72;;;1.83;100.00
13348;BME280;6743;49.934;9.138;2024-01-30T05:32:19;101864.56;;;1.81;100.00
13348;BME280;6743;49.934;9.138;2024-01-30T05:34:45;101862.94;;;1.78;100.00
13348;BME280;6743;49.934;9.138;2024-01-30T05:37:11;101846.69;;;1.72;100.00
13348;BME280;6743;49.934;9.138;2024-01-30T05:39:39;101859.47;;;1.78;100.00
13348;BME280;6743;49.934;9.138;2024-01-30T05:42:06;101863.87;;;1.77;100.00
13348;BME280;6743;49.934;9.138;2024-01-30T05:44:32;101863.06;;;1.75;100.00
13348;BME280;6743;49.934;9.138;2024-01-30T05:46:58;101868.25;;;1.77;100.00
13348;BME280;6743;49.934;9.138;2024-01-30T05:49:24;101859.53;;;1.76;100.00
13348;BME280;6743;49.934;9.138;2024-01-30T05:51:50;101859.47;;;1.78;100.00
13348;BME280;6743;49.934;9.138;2024-01-30T05:54:16;101845.75;;;1.73;100.00
13348;BME280;6743;49.934;9.138;2024-01-30T05:56:42;101852.75;;;1.72;100.00
13348;BME280;6743;49.934;9.138;2024-01-30T05:59:08;101864.56;;;1.81;100.00
13348;BME280;6743;49.934;9.138;2024-01-30T06:01:34;101857.56;;;1.81;100.00
13348;BME280;6743;49.934;9.138;2024-01-30T06:04:01;101857.91;;;1.74;100.00
13348;BME280;6743;49.934;9.138;2024-01-30T06:06:27;101843.50;;;1.65;100.00
13348;BME280;6743;49.934;9.138;2024-01-30T06:08:54;101844.47;;;1.63;100.00
13348;BME280;6743;49.934;9.138;2024-01-30T06:11:21;101868.19;;;1.78;100.00
13348;BME280;6743;49.934;9.138;2024-01-30T06:13:47;101876.88;;;1.79;100.00
13348;BME280;6743;49.934;9.138;2024-01-30T06:16:14;101870.69;;;1.80;100.00
13348;BME280;6743;49.934;9.138;2024-01-30T06:18:40;101867.47;;;1.75;100.00
13348;BME280;6743;49.934;9.138;2024-01-30T06:21:06;101864.16;;;1.71;100.00
13348;BME280;6743;49.934;9.138;2024-01-30T06:23:32;101874.41;;;1.76;100.00
13348;BME280;6743;49.934;9.138;2024-01-30T06:25:59;101867.47;;;1.75;100.00
13348;BME280;6743;49.934;9.138;2024-01-30T06:28:25;101827.69;;;1.48;100.00
13348;BME280;6743;49.934;9.138;2024-01-30T06:30:51;101860.16;;;1.63;100.00
13348;BME280;6743;49.934;9.138;2024-01-30T06:33:17;101870.34;;;1.69;100.00
13348;BME280;6743;49.934;9.138;2024-01-30T06:35:43;101873.13;;;1.66;100.00
13348;BME280;6743;49.934;9.138;2024-01-30T06:38:11;101876.44;;;1.69;100.00
13348;BME280;6743;49.934;9.138;2024-01-30T06:40:38;101859.47;;;1.59;100.00
13348;BME280;6743;49.934;9.138;2024-01-30T06:43:04;101871.47;;;1.63;100.00
13348;BME280;6743;49.934;9.138;2024-01-30T06:45:30;101878.47;;;1.63;100.00
13348;BME280;6743;49.934;9.138;2024-01-30T06:47:56;101867.56;;;1.53;100.00
13348;BME280;6743;49.934;9.138;2024-01-30T06:50:22;101852.06;;;1.48;100.00
13348;BME280;6743;49.934;9.138;2024-01-30T06:52:48;101862.47;;;1.50;100.00
13348;BME280;6743;49.934;9.138;2024-01-30T06:55:15;101869.41;;;1.51;100.00
13348;BME280;6743;49.934;9.138;2024-01-30T06:57:41;101877.09;;;1.54;100.00
13348;BME280;6743;49.934;9.138;2024-01-30T07:00:08;101876.19;;;1.55;100.00
13348;BME280;6743;49.934;9.138;2024-01-30T07:02:35;101870.16;;;1.53;100.00
13348;BME280;6743;49.934;9.138;2024-01-30T07:05:04;101859.28;;;1.43;100.00
13348;BME280;6743;49.934;9.138;2024-01-30T07:07:31;101866.78;;;1.51;100.00
13348;BME280;6743;49.934;9.138;2024-01-30T07:09:57;101872.94;;;1.50;100.00
13348;BME280;6743;49.934;9.138;2024-01-30T07:12:24;101870.25;;;1.51;100.00
13348;BME280;6743;49.934;9.138;2024-01-30T07:14:51;101857.53;;;1.44;100.00
13348;BME280;6743;49.934;9.138;2024-01-30T07:17:19;101876.34;;;1.52;100.00
13348;BME280;6743;49.934;9.138;2024-01-30T07:19:45;101860.13;;;1.44;100.00
13348;BME280;6743;49.934;9.138;2024-01-30T07:22:11;101873.06;;;1.47;100.00
13348;BME280;6743;49.934;9.138;2024-01-30T07:24:42;101846.59;;;1.34;100.00
13348;BME280;6743;49.934;9.138;2024-01-30T07:27:10;101875.62;;;1.48;100.00
13348;BME280;6743;49.934;9.138;2024-01-30T07:29:36;101814.56;;;1.10;100.00
13348;BME280;6743;49.934;9.138;2024-01-30T07:32:03;101883.41;;;1.50;100.00
13348;BME280;6743;49.934;9.138;2024-01-30T07:34:29;101832.44;;;1.19;100.00
13348;BME280;6743;49.934;9.138;2024-01-30T07:36:56;101840.00;;;1.26;100.00
13348;BME280;6743;49.934;9.138;2024-01-30T07:39:22;101865.53;;;1.39;100.00
13348;BME280;6743;49.934;9.138;2024-01-30T07:41:48;101875.69;;;1.47;100.00
13348;BME280;6743;49.934;9.138;2024-01-30T07:44:14;101857.13;;;1.33;100.00
13348;BME280;6743;49.934;9.138;2024-01-30T07:46:42;101866.50;;;1.38;100.00
13348;BME280;6743;49.934;9.138;2024-01-30T07:49:08;101866.56;;;1.37;100.00
13348;BME280;6743;49.934;9.138;2024-01-30T07:51:33;101870.03;;;1.37;100.00
13348;BME280;6743;49.934;9.138;2024-01-30T07:53:59;101852.03;;;1.30;100.00
13348;BME280;6743;49.934;9.138;2024-01-30T07:56:25;101886.12;;;1.47;100.00
13348;BME280;6743;49.934;9.138;2024-01-30T07:58:52;101859.69;;;1.34;100.00
13348;BME280;6743;49.934;9.138;2024-01-30T08:01:18;101895.56;;;1.51;100.00
13348;BME280;6743;49.934;9.138;2024-01-30T08:03:45;101871.34;;;1.46;100.00
13348;BME280;6743;49.934;9.138;2024-01-30T08:06:11;101861.06;;;1.43;100.00
13348;BME280;6743;49.934;9.138;2024-01-30T08:08:37;101873.63;;;1.53;100.00
13348;BME280;6743;49.934;9.138;2024-01-30T08:11:04;101873.56;;;1.55;100.00
13348;BME280;6743;49.934;9.138;2024-01-30T08:13:30;101868.34;;;1.55;100.00
13348;BME280;6743;49.934;9.138;2024-01-30T08:15:56;101882.78;;;1.64;100.00
13348;BME280;6743;49.934;9.138;2024-01-30T08:18:22;101865.53;;;1.59;100.00
13348;BME280;6743;49.934;9.138;2024-01-30T08:20:48;101863.75;;;1.60;100.00
13348;BME280;6743;49.934;9.138;2024-01-30T08:23:14;101866.31;;;1.62;100.00
13348;BME280;6743;49.934;9.138;2024-01-30T08:25:40;101871.94;;;1.73;100.00
13348;BME280;6743;49.934;9.138;2024-01-30T08:28:06;101876.94;;;1.77;100.00
13348;BME280;6743;49.934;9.138;2024-01-30T08:30:33;101854.03;;;1.64;100.00
13348;BME280;6743;49.934;9.138;2024-01-30T08:32:59;101888.91;;;1.83;100.00
13348;BME280;6743;49.934;9.138;2024-01-30T08:35:25;101885.31;;;1.85;100.00
13348;BME280;6743;49.934;9.138;2024-01-30T08:37:51;101888.69;;;1.87;100.00
13348;BME280;6743;49.934;9.138;2024-01-30T08:40:19;101874.97;;;1.82;100.00
13348;BME280;6743;49.934;9.138;2024-01-30T08:42:45;101893.66;;;1.93;100.00
13348;BME280;6743;49.934;9.138;2024-01-30T08:45:11;101885.94;;;1.90;100.00
13348;BME280;6743;49.934;9.138;2024-01-30T08:47:37;101908.13;;;2.01;100.00
13348;BME280;6743;49.934;9.138;2024-01-30T08:50:04;101880.63;;;1.92;100.00
13348;BME280;6743;49.934;9.138;2024-01-30T08:52:30;101892.53;;;1.99;100.00
13348;BME280;6743;49.934;9.138;2024-01-30T08:54:57;101900.66;;;2.12;100.00
13348;BME280;6743;49.934;9.138;2024-01-30T08:57:23;101899.69;;;2.14;100.00
13348;BME280;6743;49.934;9.138;2024-01-30T08:59:49;101890.25;;;2.10;100.00
13348;BME280;6743;49.934;9.138;2024-01-30T09:02:15;101906.31;;;2.21;100.00
13348;BME280;6743;49.934;9.138;2024-01-30T09:04:43;101911.41;;;2.24;100.00
13348;BME280;6743;49.934;9.138;2024-01-30T09:07:09;101910.56;;;2.24;100.00
13348;BME280;6743;49.934;9.138;2024-01-30T09:09:37;101906.75;;;2.31;100.00
13348;BME280;6743;49.934;9.138;2024-01-30T09:12:04;101898.37;;;2.23;100.00
13348;BME280;6743;49.934;9.138;2024-01-30T09:14:33;101904.13;;;2.31;100.00
13348;BME280;6743;49.934;9.138;2024-01-30T09:16:59;101908.37;;;2.33;100.00
13348;BME280;6743;49.934;9.138;2024-01-30T09:19:25;101899.59;;;2.34;100.00
13348;BME280;6743;49.934;9.138;2024-01-30T09:21:51;101912.91;;;2.49;100.00
13348;BME280;6743;49.934;9.138;2024-01-30T09:24:17;101906.31;;;2.40;100.00
13348;BME280;6743;49.934;9.138;2024-01-30T09:26:43;101926.47;;;2.57;100.00
13348;BME280;6743;49.934;9.138;2024-01-30T09:29:09;101926.25;;;2.61;100.00
13348;BME280;6743;49.934;9.138;2024-01-30T09:31:35;101926.81;;;2.68;100.00
13348;BME280;6743;49.934;9.138;2024-01-30T09:34:01;101925.66;;;2.73;100.00
13348;BME280;6743;49.934;9.138;2024-01-30T09:36:27;101923.81;;;2.75;100.00
13348;BME280;6743;49.934;9.138;2024-01-30T09:38:54;101918.34;;;2.80;100.00
13348;BME280;6743;49.934;9.138;2024-01-30T09:41:20;101925.97;;;2.85;100.00
13348;BME280;6743;49.934;9.138;2024-01-30T09:43:50;101915.28;;;2.89;100.00
13348;BME280;6743;49.934;9.138;2024-01-30T09:46:17;101897.31;;;2.82;100.00
13348;BME280;6743;49.934;9.138;2024-01-30T09:48:46;101915.13;;;2.92;100.00
13348;BME280;6743;49.934;9.138;2024-01-30T09:51:14;101927.00;;;2.99;100.00
13348;BME280;6743;49.934;9.138;2024-01-30T09:53:41;101922.31;;;3.06;100.00
13348;BME280;6743;49.934;9.138;2024-01-30T09:56:08;101926.50;;;3.10;100.00
13348;BME280;6743;49.934;9.138;2024-01-30T09:58:34;101914.97;;;3.12;100.00
13348;BME280;6743;49.934;9.138;2024-01-30T10:01:00;101916.56;;;3.16;100.00
13348;BME280;6743;49.934;9.138;2024-01-30T10:03:27;101919.62;;;3.25;100.00
13348;BME280;6743;49.934;9.138;2024-01-30T10:05:53;101910.69;;;3.29;100.00
13348;BME280;6743;49.934;9.138;2024-01-30T10:08:20;101906.97;;;3.33;100.00
13348;BME280;6743;49.934;9.138;2024-01-30T10:10:46;101913.69;;;3.38;100.00
13348;BME280;6743;49.934;9.138;2024-01-30T10:13:12;101909.72;;;3.47;100.00
13348;BME280;6743;49.934;9.138;2024-01-30T10:15:38;101903.47;;;3.49;100.00
13348;BME280;6743;49.934;9.138;2024-01-30T10:18:06;101906.56;;;3.58;100.00
13348;BME280;6743;49.934;9.138;2024-01-30T10:20:33;101905.47;;;3.62;100.00
13348;BME280;6743;49.934;9.138;2024-01-30T10:22:59;101898.97;;;3.69;100.00
13348;BME280;6743;49.934;9.138;2024-01-30T10:25:26;101893.56;;;3.72;100.00
13348;BME280;6743;49.934;9.138;2024-01-30T10:27:55;101897.63;;;3.77;100.00
13348;BME280;6743;49.934;9.138;2024-01-30T10:30:21;101835.41;;;3.46;100.00
13348;BME280;6743;49.934;9.138;2024-01-30T10:32:47;101896.19;;;3.87;100.00
13348;BME280;6743;49.934;9.138;2024-01-30T10:35:13;101869.09;;;3.71;100.00
13348;BME280;6743;49.934;9.138;2024-01-30T10:37:41;101906.22;;;3.96;100.00
13348;BME280;6743;49.934;9.138;2024-01-30T10:40:12;101887.91;;;3.95;100.00
13348;BME280;6743;49.934;9.138;2024-01-30T10:42:42;101868.78;;;3.93;100.00
13348;BME280;6743;49.934;9.138;2024-01-30T10:45:10;101887.94;;;4.11;100.00
13348;BME280;6743;49.934;9.138;2024-01-30T10:47:39;101894.47;;;4.19;100.00
13348;BME280;6743;49.934;9.138;2024-01-30T10:50:07;101879.72;;;4.17;100.00
13348;BME280;6743;49.934;9.138;2024-01-30T10:52:34;101897.34;;;4.30;100.00
13348;BME280;6743;49.934;9.138;2024-01-30T10:55:01;101849.31;;;4.13;100.00
13348;BME280;6743;49.934;9.138;2024-01-30T10:57:31;101880.31;;;4.37;100.00
13348;BME280;6743;49.934;9.138;2024-01-30T11:00:00;101891.34;;;4.44;100.00
13348;BME280;6743;49.934;9.138;2024-01-30T11:02:31;101888.56;;;4.47;100.00
13348;BME280;6743;49.934;9.138;2024-01-30T11:04:58;101884.87;;;4.50;100.00
13348;BME280;6743;49.934;9.138;2024-01-30T11:07:26;101888.13;;;4.55;100.00
13348;BME280;6743;49.934;9.138;2024-01-30T11:09:53;101876.06;;;4.51;100.00
13348;BME280;6743;49.934;9.138;2024-01-30T11:12:23;101892.00;;;4.63;100.00
13348;BME280;6743;49.934;9.138;2024-01-30T11:14:50;101882.16;;;4.67;100.00
13348;BME280;6743;49.934;9.138;2024-01-30T11:17:27;101883.66;;;4.71;100.00
13348;BME280;6743;49.934;9.138;2024-01-30T11:19:53;101887.84;;;4.75;100.00
13348;BME280;6743;49.934;9.138;2024-01-30T11:22:20;101871.50;;;4.70;100.00
13348;BME280;6743;49.934;9.138;2024-01-30T11:24:47;101868.09;;;4.68;100.00
13348;BME280;6743;49.934;9.138;2024-01-30T11:27:13;101879.25;;;4.87;100.00
13348;BME280;6743;49.934;9.138;2024-01-30T11:29:41;101874.56;;;4.92;100.00
13348;BME280;6743;49.934;9.138;2024-01-30T11:32:07;101855.50;;;4.89;100.00
13348;BME280;6743;49.934;9.138;2024-01-30T11:34:33;101861.44;;;5.06;100.00
13348;BME280;6743;49.934;9.138;2024-01-30T11:37:03;101858.38;;;5.14;100.00
13348;BME280;6743;49.934;9.138;2024-01-30T11:39:32;101856.91;;;5.24;100.00
13348;BME280;6743;49.934;9.138;2024-01-30T11:41:59;101854.81;;;5.29;100.00
13348;BME280;6743;49.934;9.138;2024-01-30T11:44:25;101851.81;;;5.35;100.00
13348;BME280;6743;49.934;9.138;2024-01-30T11:46:52;101847.97;;;5.41;100.00
13348;BME280;6743;49.934;9.138;2024-01-30T11:49:18;101859.66;;;5.51;100.00
13348;BME280;6743;49.934;9.138;2024-01-30T11:51:45;101855.16;;;5.53;100.00
13348;BME280;6743;49.934;9.138;2024-01-30T11:54:11;101860.59;;;5.64;100.00
13348;BME280;6743;49.934;9.138;2024-01-30T11:56:37;101856.72;;;5.70;100.00
13348;BME280;6743;49.934;9.138;2024-01-30T11:59:03;101852.88;;;5.75;100.00
13348;BME280;6743;49.934;9.138;2024-01-30T12:01:30;101845.53;;;5.80;100.00
13348;BME280;6743;49.934;9.138;2024-01-30T12:03:57;101846.19;;;5.84;100.00
13348;BME280;6743;49.934;9.138;2024-01-30T12:06:23;101821.25;;;5.75;100.00
13348;BME280;6743;49.934;9.138;2024-01-30T12:08:57;101847.34;;;5.94;100.00
13348;BME280;6743;49.934;9.138;2024-01-30T12:11:23;101835.47;;;6.01;100.00
13348;BME280;6743;49.934;9.138;2024-01-30T12:13:51;101830.56;;;6.09;100.00
13348;BME280;6743;49.934;9.138;2024-01-30T12:16:20;101812.09;;;6.09;100.00
13348;BME280;6743;49.934;9.138;2024-01-30T12:18:47;101819.97;;;6.23;100.00
13348;BME280;6743;49.934;9.138;2024-01-30T12:21:17;101794.31;;;6.13;100.00
13348;BME280;6743;49.934;9.138;2024-01-30T12:23:43;101800.50;;;6.26;100.00
13348;BME280;6743;49.934;9.138;2024-01-30T12:26:10;101811.09;;;6.39;100.00
13348;BME280;6743;49.934;9.138;2024-01-30T12:28:37;101791.78;;;6.38;100.00
13348;BME280;6743;49.934;9.138;2024-01-30T12:31:03;101793.28;;;6.42;100.00
13348;BME280;6743;49.934;9.138;2024-01-30T12:33:30;101800.38;;;6.54;100.00
13348;BME280;6743;49.934;9.138;2024-01-30T12:35:57;101800.06;;;6.59;100.00
13348;BME280;6743;49.934;9.138;2024-01-30T12:38:28;101800.50;;;6.65;100.00
13348;BME280;6743;49.934;9.138;2024-01-30T12:40:54;101776.06;;;6.63;100.00
13348;BME280;6743;49.934;9.138;2024-01-30T12:43:21;101765.37;;;6.65;100.00
13348;BME280;6743;49.934;9.138;2024-01-30T12:45:47;101787.25;;;6.80;100.00
13348;BME280;6743;49.934;9.138;2024-01-30T12:48:13;101787.38;;;6.91;100.00
13348;BME280;6743;49.934;9.138;2024-01-30T12:50:39;101776.06;;;6.89;100.00
13348;BME280;6743;49.934;9.138;2024-01-30T12:53:05;101787.69;;;6.99;100.00
13348;BME280;6743;49.934;9.138;2024-01-30T12:55:32;101790.03;;;7.03;100.00
13348;BME280;6743;49.934;9.138;2024-01-30T12:57:58;101751.81;;;6.84;100.00